Time;durP1;ratioP1;P1;durP2;ratioP2;P2;SDS_P1;SDS_P2;PMS_P1;PMS_P2;Temp;Humidity;BMP_temperature;BMP_pressure;BME280_temperature;BME280_humidity;BME280_pressure;Samples;Min_cycle;Max_cycle;Signal;HPM_P1;HPM_P2
2023/10/30 00:01:39;;;;;;;;;;;;;;;13.59;56.00;99471.16;4966496;27;98078;-66
2023/10/30 00:04:06;;;;;;;;;;;;;;;13.58;55.75;99466.84;4989987;27;99277;-72
2023/10/30 00:06:33;;;;;;;;;;;;;;;13.59;56.18;99462.22;5006179;27;98411;-72
2023/10/30 00:09:00;;;;;;;;;;;;;;;13.59;55.97;99470.34;4980561;27;109511;-65
2023/10/30 00:11:27;;;;;;;;;;;;;;;13.58;55.96;99466.84;4985016;27;98323;-66
2023/10/30 00:13:53;;;;;;;;;;;;;;;13.58;55.63;99463.34;4970394;27;98011;-66
2023/10/30 00:16:20;;;;;;;;;;;;;;;13.58;55.70;99482.28;4985375;27;98167;-66
2023/10/30 00:18:46;;;;;;;;;;;;;;;13.58;55.83;99485.00;4984241;27;98837;-72
2023/10/30 00:21:13;;;;;;;;;;;;;;;13.58;56.16;99485.81;4999235;27;98239;-66
2023/10/30 00:23:39;;;;;;;;;;;;;;;13.58;56.24;99488.50;4970682;27;98381;-72
2023/10/30 00:26:06;;;;;;;;;;;;;;;13.58;55.80;99479.59;4984347;27;98284;-74
2023/10/30 00:28:34;;;;;;;;;;;;;;;13.60;55.80;99488.22;5001231;27;98038;-72
2023/10/30 00:31:00;;;;;;;;;;;;;;;13.58;56.00;99485.81;5014652;27;98737;-72
2023/10/30 00:33:27;;;;;;;;;;;;;;;13.59;55.87;99478.47;4996602;27;97945;-66
2023/10/30 00:35:53;;;;;;;;;;;;;;;13.59;56.17;99483.88;4986134;27;98419;-72
2023/10/30 00:38:19;;;;;;;;;;;;;;;13.59;55.78;99487.41;5000720;27;99582;-66
2023/10/30 00:40:46;;;;;;;;;;;;;;;13.59;55.80;99490.09;4981914;27;98834;-72
2023/10/30 00:43:12;;;;;;;;;;;;;;;13.59;55.84;99495.50;5001984;27;98615;-66
2023/10/30 00:45:38;;;;;;;;;;;;;;;13.60;55.73;99482.81;5015255;27;98469;-72
2023/10/30 00:48:05;;;;;;;;;;;;;;;13.60;56.03;99482.81;4967345;27;98261;-66
2023/10/30 00:50:32;;;;;;;;;;;;;;;13.60;55.80;99486.31;5016387;27;98346;-66
2023/10/30 00:53:00;;;;;;;;;;;;;;;13.60;56.17;99489.00;4982878;27;98097;-72
2023/10/30 00:55:27;;;;;;;;;;;;;;;13.61;55.75;99489.81;4972221;27;98038;-66
2023/10/30 00:57:54;;;;;;;;;;;;;;;13.61;55.94;99497.94;4986356;27;98408;-73
2023/10/30 01:00:21;;;;;;;;;;;;;;;13.61;55.77;99503.34;4983214;27;98074;-73
2023/10/30 01:02:47;;;;;;;;;;;;;;;13.61;55.91;99506.84;4964335;27;98242;-73
2023/10/30 01:05:14;;;;;;;;;;;;;;;13.60;55.95;99505.25;4988139;27;97912;-66
2023/10/30 01:07:40;;;;;;;;;;;;;;;13.63;56.01;99511.94;4981982;27;98467;-72
2023/10/30 01:10:06;;;;;;;;;;;;;;;13.61;55.71;99504.13;4985566;27;99611;-72
2023/10/30 01:12:32;;;;;;;;;;;;;;;13.61;55.79;99496.03;5009988;27;99374;-73
2023/10/30 01:14:59;;;;;;;;;;;;;;;13.62;55.70;99494.09;4983112;27;97955;-66
2023/10/30 01:17:26;;;;;;;;;;;;;;;13.61;56.18;99493.31;4968634;27;98052;-66
2023/10/30 01:19:52;;;;;;;;;;;;;;;13.61;56.09;99489.81;4998841;27;98626;-72
2023/10/30 01:22:18;;;;;;;;;;;;;;;13.61;55.70;99495.22;5014366;27;98372;-66
2023/10/30 01:24:45;;;;;;;;;;;;;;;13.61;55.79;99495.22;5005387;27;98796;-66
2023/10/30 01:27:11;;;;;;;;;;;;;;;13.60;56.04;99499.06;5015750;27;98253;-66
2023/10/30 01:29:37;;;;;;;;;;;;;;;13.61;55.86;99506.06;4989162;27;100098;-65
2023/10/30 01:32:04;;;;;;;;;;;;;;;13.60;55.96;99499.84;5003819;27;98025;-72
2023/10/30 01:34:30;;;;;;;;;;;;;;;13.60;55.83;99504.47;4978141;27;98291;-72
2023/10/30 01:36:57;;;;;;;;;;;;;;;13.60;55.83;99507.16;4998906;27;99868;-66
2023/10/30 01:39:23;;;;;;;;;;;;;;;13.59;56.15;99514.47;5014599;27;98722;-72
2023/10/30 01:41:49;;;;;;;;;;;;;;;13.60;56.04;99520.72;4962368;27;98330;-66
2023/10/30 01:44:15;;;;;;;;;;;;;;;13.60;56.00;99520.72;4988110;27;98616;-72
2023/10/30 01:46:42;;;;;;;;;;;;;;;13.59;55.78;99516.38;5000003;27;98056;-72
2023/10/30 01:49:08;;;;;;;;;;;;;;;13.58;56.08;99514.78;4993279;27;98387;-72
2023/10/30 01:51:36;;;;;;;;;;;;;;;13.58;56.11;99517.50;4966861;27;99438;-72
2023/10/30 01:54:02;;;;;;;;;;;;;;;13.58;56.18;99517.50;4965553;27;98094;-72
2023/10/30 01:56:28;;;;;;;;;;;;;;;13.58;55.93;99520.19;5001390;27;98056;-72
2023/10/30 01:58:54;;;;;;;;;;;;;;;13.58;55.86;99525.63;4985716;27;98863;-72
2023/10/30 02:01:22;;;;;;;;;;;;;;;13.57;55.83;99532.16;4999808;27;97977;-72
2023/10/30 02:03:49;;;;;;;;;;;;;;;13.56;56.08;99530.53;4973639;27;98101;-72
2023/10/30 02:06:15;;;;;;;;;;;;;;;13.56;56.24;99544.91;5017185;27;100443;-66
2023/10/30 02:08:41;;;;;;;;;;;;;;;13.57;56.10;99546.47;4996917;27;98121;-72
2023/10/30 02:11:07;;;;;;;;;;;;;;;13.57;55.72;99551.91;4992096;27;98916;-72
2023/10/30 02:13:33;;;;;;;;;;;;;;;13.56;55.79;99542.19;4997907;27;100939;-72
2023/10/30 02:15:59;;;;;;;;;;;;;;;13.57;55.79;99540.28;4967023;27;98277;-66
2023/10/30 02:18:25;;;;;;;;;;;;;;;13.57;56.04;99551.09;4980141;27;99804;-73
2023/10/30 02:20:51;;;;;;;;;;;;;;;13.57;55.95;99551.09;4987288;27;99005;-72
2023/10/30 02:23:18;;;;;;;;;;;;;;;13.57;55.98;99556.53;4982691;27;98346;-72
2023/10/30 02:25:45;;;;;;;;;;;;;;;13.56;55.72;99569.25;4998591;27;100633;-66
2023/10/30 02:28:11;;;;;;;;;;;;;;;13.57;55.89;99570.84;4987179;27;99656;-72
2023/10/30 02:30:38;;;;;;;;;;;;;;;13.58;56.13;99582.47;4981100;27;98091;-66
2023/10/30 02:33:04;;;;;;;;;;;;;;;13.56;55.97;99563.03;4969439;27;98850;-66
2023/10/30 02:35:31;;;;;;;;;;;;;;;13.58;56.18;99558.91;4982106;27;98207;-72
2023/10/30 02:37:57;;;;;;;;;;;;;;;13.58;56.00;99548.06;4997632;27;98087;-66
2023/10/30 02:40:24;;;;;;;;;;;;;;;13.58;56.18;99558.91;4964460;27;98356;-66
2023/10/30 02:42:50;;;;;;;;;;;;;;;13.58;55.81;99561.63;4974854;27;98110;-66
2023/10/30 02:45:16;;;;;;;;;;;;;;;13.60;56.04;99564.03;5009389;27;101795;-72
2023/10/30 02:47:42;;;;;;;;;;;;;;;13.59;55.95;99565.91;5000671;27;97925;-72
2023/10/30 02:50:10;;;;;;;;;;;;;;;13.59;55.74;99568.63;5014078;27;98120;-66
2023/10/30 02:52:36;;;;;;;;;;;;;;;13.58;56.01;99577.84;5000257;27;98073;-72
2023/10/30 02:55:03;;;;;;;;;;;;;;;13.59;55.66;99560.50;4982463;27;99877;-66
2023/10/30 02:57:29;;;;;;;;;;;;;;;13.59;56.08;99551.59;4996534;27;98478;-66
2023/10/30 02:59:55;;;;;;;;;;;;;;;13.59;55.71;99559.69;4984048;27;98123;-66
2023/10/30 03:02:22;;;;;;;;;;;;;;;13.58;55.77;99547.28;4978697;27;98194;-72
2023/10/30 03:04:48;;;;;;;;;;;;;;;13.57;55.91;99554.59;5014962;27;98134;-66
2023/10/30 03:07:15;;;;;;;;;;;;;;;13.57;56.02;99551.91;4993443;27;99687;-66
2023/10/30 03:09:42;;;;;;;;;;;;;;;13.55;55.76;99537.84;4985252;27;98075;-72
2023/10/30 03:12:08;;;;;;;;;;;;;;;13.57;56.14;99529.44;4966147;27;98490;-66
2023/10/30 03:14:34;;;;;;;;;;;;;;;13.57;55.84;99529.44;4993790;27;98217;-66
2023/10/30 03:17:01;;;;;;;;;;;;;;;13.56;55.83;99511.56;4981697;27;97904;-72
2023/10/30 03:19:27;;;;;;;;;;;;;;;13.56;56.17;99528.66;4983084;27;98942;-66
2023/10/30 03:21:54;;;;;;;;;;;;;;;13.57;56.14;99540.28;4966234;27;98473;-66
2023/10/30 03:24:21;;;;;;;;;;;;;;;13.56;56.17;99553.00;4969352;27;100061;-66
2023/10/30 03:26:47;;;;;;;;;;;;;;;13.57;56.14;99556.53;4972129;27;99398;-66
2023/10/30 03:29:14;;;;;;;;;;;;;;;13.56;56.26;99590.09;4985673;27;98267;-72
2023/10/30 03:31:40;;;;;;;;;;;;;;;13.57;55.96;99602.53;4984582;27;98296;-66
2023/10/30 03:34:06;;;;;;;;;;;;;;;13.57;56.07;99602.53;4966388;27;98240;-66
2023/10/30 03:36:33;;;;;;;;;;;;;;;13.57;56.19;99594.44;5019959;27;98123;-65
2023/10/30 03:38:59;;;;;;;;;;;;;;;13.57;55.95;99594.44;5002378;27;98776;-66
2023/10/30 03:41:25;;;;;;;;;;;;;;;13.57;56.13;99584.38;5002266;27;98046;-66
2023/10/30 03:43:52;;;;;;;;;;;;;;;13.57;55.87;99587.09;4997805;27;98241;-72
2023/10/30 03:46:19;;;;;;;;;;;;;;;13.58;55.80;99596.00;5017347;27;98414;-72
2023/10/30 03:48:45;;;;;;;;;;;;;;;13.58;56.05;99596.00;4982149;27;98095;-72
2023/10/30 03:51:11;;;;;;;;;;;;;;;13.58;55.70;99604.13;5000529;27;99073;-72
2023/10/30 03:53:37;;;;;;;;;;;;;;;13.59;56.20;99600.31;5002853;27;99034;-72
2023/10/30 03:56:06;;;;;;;;;;;;;;;13.58;56.03;99583.28;4989362;27;98007;-72
2023/10/30 03:58:33;;;;;;;;;;;;;;;13.60;56.08;99564.03;4980190;27;98189;-66
2023/10/30 04:01:05;;;;;;;;;;;;;;;13.61;56.06;99576.47;4984846;27;101668;-66
2023/10/30 04:03:31;;;;;;;;;;;;;;;13.60;55.77;99559.41;4983812;27;98693;-72
2023/10/30 04:06:04;;;;;;;;;;;;;;;13.61;55.95;99573.75;4984063;27;99552;-66
2023/10/30 04:08:30;;;;;;;;;;;;;;;13.61;56.09;99579.97;4985515;27;98302;-72
2023/10/30 04:10:56;;;;;;;;;;;;;;;13.62;55.93;99584.25;4987027;27;98050;-66
2023/10/30 04:13:24;;;;;;;;;;;;;;;13.62;55.87;99567.22;4984278;27;98406;-66
2023/10/30 04:15:50;;;;;;;;;;;;;;;13.62;56.06;99568.00;4982761;27;98879;-66
2023/10/30 04:18:16;;;;;;;;;;;;;;;13.62;55.89;99570.72;4983815;27;99252;-71
2023/10/30 04:20:43;;;;;;;;;;;;;;;13.63;55.88;99541.72;4999335;27;98045;-72
2023/10/30 04:23:10;;;;;;;;;;;;;;;13.63;56.29;99557.97;4967450;27;104029;-66
2023/10/30 04:25:36;;;;;;;;;;;;;;;13.63;55.83;99539.81;4969804;27;98669;-66
2023/10/30 04:28:02;;;;;;;;;;;;;;;13.63;56.19;99547.13;4983135;27;98120;-72
2023/10/30 04:30:28;;;;;;;;;;;;;;;13.63;55.92;99577.72;4969520;27;99437;-73
2023/10/30 04:32:54;;;;;;;;;;;;;;;13.62;55.89;99570.72;4971660;27;98525;-68
2023/10/30 04:35:21;;;;;;;;;;;;;;;13.63;56.17;99579.63;5000137;27;98003;-72
2023/10/30 04:37:47;;;;;;;;;;;;;;;13.61;55.82;99593.50;5019936;27;98108;-66
2023/10/30 04:40:13;;;;;;;;;;;;;;;13.61;55.82;99566.41;5003107;27;99282;-66
2023/10/30 04:42:40;;;;;;;;;;;;;;;13.62;56.24;99569.91;5001079;27;99887;-72
2023/10/30 04:45:06;;;;;;;;;;;;;;;13.60;55.96;99574.88;4975845;27;98921;-66
2023/10/30 04:47:33;;;;;;;;;;;;;;;13.60;56.15;99554.00;4970177;27;98285;-72
2023/10/30 04:49:59;;;;;;;;;;;;;;;13.60;55.80;99575.66;4997776;27;98099;-67
2023/10/30 04:52:25;;;;;;;;;;;;;;;13.59;56.05;99584.88;4980907;27;98334;-67
2023/10/30 04:54:51;;;;;;;;;;;;;;;13.60;55.84;99585.69;5000538;27;98763;-66
2023/10/30 04:57:17;;;;;;;;;;;;;;;13.59;56.21;99586.78;5000085;27;98030;-67
2023/10/30 04:59:44;;;;;;;;;;;;;;;13.59;56.20;99586.78;5017810;27;97961;-73
2023/10/30 05:02:10;;;;;;;;;;;;;;;13.58;56.18;99587.91;4967930;27;100836;-73
2023/10/30 05:04:37;;;;;;;;;;;;;;;13.58;55.78;99577.84;4986071;27;98219;-73
2023/10/30 05:07:03;;;;;;;;;;;;;;;13.57;55.81;99578.97;5002619;27;99043;-73
2023/10/30 05:09:29;;;;;;;;;;;;;;;13.56;55.88;99573.84;5003158;27;99539;-67
2023/10/30 05:11:55;;;;;;;;;;;;;;;13.55;56.28;99581.19;4999975;27;98029;-67
2023/10/30 05:14:22;;;;;;;;;;;;;;;13.54;55.81;99571.47;4996857;27;100892;-68
2023/10/30 05:16:48;;;;;;;;;;;;;;;13.55;55.84;99583.09;4984498;27;98107;-67
2023/10/30 05:19:14;;;;;;;;;;;;;;;13.54;56.23;99567.97;4985219;27;100523;-67
2023/10/30 05:21:40;;;;;;;;;;;;;;;13.54;56.23;99576.09;4988410;27;100199;-67
2023/10/30 05:24:07;;;;;;;;;;;;;;;13.54;55.81;99567.97;5003352;27;98835;-73
2023/10/30 05:26:34;;;;;;;;;;;;;;;13.53;56.17;99578.00;4992954;27;98322;-67
2023/10/30 05:29:00;;;;;;;;;;;;;;;13.52;56.07;99595.34;4975847;27;98251;-67
2023/10/30 05:31:26;;;;;;;;;;;;;;;13.52;55.71;99587.22;5000326;27;98249;-73
2023/10/30 05:33:52;;;;;;;;;;;;;;;13.51;56.23;99588.31;4987221;27;97845;-65
2023/10/30 05:36:18;;;;;;;;;;;;;;;13.51;56.17;99591.03;4999136;27;98167;-65
2023/10/30 05:38:45;;;;;;;;;;;;;;;13.51;55.79;99605.34;4980665;27;97928;-65
2023/10/30 05:41:11;;;;;;;;;;;;;;;13.50;55.85;99598.34;4998462;27;98227;-72
2023/10/30 05:43:38;;;;;;;;;;;;;;;13.51;55.98;99591.03;4986355;27;98745;-66
2023/10/30 05:46:04;;;;;;;;;;;;;;;13.49;56.27;99571.59;4968529;27;98469;-67
2023/10/30 05:48:30;;;;;;;;;;;;;;;13.49;55.87;99545.31;4965382;27;99038;-66
2023/10/30 05:50:56;;;;;;;;;;;;;;;13.50;56.23;99575.91;4977924;27;104238;-66
2023/10/30 05:53:22;;;;;;;;;;;;;;;13.50;55.92;99573.19;5010557;27;98412;-72
2023/10/30 05:55:49;;;;;;;;;;;;;;;13.49;56.03;99591.34;5016670;27;98209;-66
2023/10/30 05:58:15;;;;;;;;;;;;;;;13.49;55.88;99599.47;4981971;27;98540;-67
2023/10/30 06:00:42;;;;;;;;;;;;;;;13.49;56.18;99568.88;4967317;27;98085;-72
2023/10/30 06:03:11;;;;;;;;;;;;;;;13.50;55.88;99589.44;4987158;27;98232;-66
2023/10/30 06:05:37;;;;;;;;;;;;;;;13.50;56.08;99589.44;4974597;27;99004;-66
2023/10/30 06:08:03;;;;;;;;;;;;;;;13.48;55.83;99589.75;4999611;27;98201;-72
2023/10/30 06:10:30;;;;;;;;;;;;;;;13.49;56.28;99596.75;4978624;27;98688;-72
2023/10/30 06:12:56;;;;;;;;;;;;;;;13.50;55.92;99601.06;4964210;27;98160;-72
2023/10/30 06:15:22;;;;;;;;;;;;;;;13.49;56.01;99613.00;4975951;27;98104;-66
2023/10/30 06:17:49;;;;;;;;;;;;;;;13.50;56.15;99608.38;4978752;27;99336;-72
2023/10/30 06:20:16;;;;;;;;;;;;;;;13.48;55.74;99641.19;4972589;27;98431;-72
2023/10/30 06:22:42;;;;;;;;;;;;;;;13.50;55.76;99630.03;4989648;27;98355;-72
2023/10/30 06:25:09;;;;;;;;;;;;;;;13.49;55.80;99615.72;4978400;27;98770;-66
2023/10/30 06:27:35;;;;;;;;;;;;;;;13.49;55.96;99626.53;4994463;27;98517;-66
2023/10/30 06:30:02;;;;;;;;;;;;;;;13.50;56.08;99608.38;4971845;27;98244;-72
2023/10/30 06:32:29;;;;;;;;;;;;;;;13.50;56.02;99592.94;4977642;27;100387;-66
2023/10/30 06:34:55;;;;;;;;;;;;;;;13.52;55.82;99584.53;5011337;27;98182;-72
2023/10/30 06:37:21;;;;;;;;;;;;;;;13.53;55.98;99575.28;4994237;27;106130;-66
2023/10/30 06:39:48;;;;;;;;;;;;;;;13.55;55.83;99583.09;4963801;27;98357;-71
2023/10/30 06:42:14;;;;;;;;;;;;;;;13.54;55.94;99595.03;5013566;27;98170;-65
2023/10/30 06:44:41;;;;;;;;;;;;;;;13.56;55.92;99590.09;4976145;27;98890;-66
2023/10/30 06:47:07;;;;;;;;;;;;;;;13.58;55.80;99615.78;4963680;27;98526;-66
2023/10/30 06:49:34;;;;;;;;;;;;;;;13.59;55.77;99630.91;4990067;27;98334;-66
2023/10/30 06:52:00;;;;;;;;;;;;;;;13.62;55.91;99637.63;5009280;27;98306;-72
2023/10/30 06:54:26;;;;;;;;;;;;;;;13.64;55.96;99635.41;4991639;27;99379;-72
2023/10/30 06:56:53;;;;;;;;;;;;;;;13.64;55.90;99641.63;4976658;27;98145;-72
2023/10/30 06:59:21;;;;;;;;;;;;;;;13.67;55.92;99656.44;4963057;27;99579;-66
2023/10/30 07:01:48;;;;;;;;;;;;;;;13.68;55.99;99663.47;4962915;27;99425;-66
2023/10/30 07:04:15;;;;;;;;;;;;;;;13.69;55.63;99660.44;4992668;27;98187;-66
2023/10/30 07:06:42;;;;;;;;;;;;;;;13.71;56.13;99644.69;4997024;27;99721;-66
2023/10/30 07:09:09;;;;;;;;;;;;;;;13.79;55.94;99640.44;4986032;27;99144;-72
2023/10/30 07:11:36;;;;;;;;;;;;;;;13.87;55.60;99650.56;4955647;27;98263;-66
2023/10/30 07:14:03;;;;;;;;;;;;;;;13.94;55.35;99653.59;4997744;27;98406;-67
2023/10/30 07:16:30;;;;;;;;;;;;;;;14.00;55.70;99648.88;4982118;27;98596;-72
2023/10/30 07:19:02;;;;;;;;;;;;;;;13.99;55.36;99650.00;4965502;27;98417;-66
2023/10/30 07:21:28;;;;;;;;;;;;;;;14.00;55.59;99648.88;4993671;27;99088;-66
2023/10/30 07:23:55;;;;;;;;;;;;;;;14.03;55.47;99640.13;4979131;27;98230;-66
2023/10/30 07:26:21;;;;;;;;;;;;;;;14.07;55.54;99641.13;4995936;27;98740;-72
2023/10/30 07:28:48;;;;;;;;;;;;;;;14.16;55.74;99639.25;4961371;27;99558;-72
2023/10/30 07:31:15;;;;;;;;;;;;;;;14.34;55.18;99644.75;4994730;27;98255;-72
2023/10/30 07:33:41;;;;;;;;;;;;;;;14.46;55.23;99636.81;4999485;27;99724;-66
2023/10/30 07:36:09;;;;;;;;;;;;;;;14.55;55.04;99626.06;4993543;27;98150;-66
2023/10/30 07:38:38;;;;;;;;;;;;;;;14.58;55.04;99630.84;4993468;27;97934;-72
2023/10/30 07:41:05;;;;;;;;;;;;;;;14.58;55.19;99652.53;4990130;27;99850;-73
2023/10/30 07:43:31;;;;;;;;;;;;;;;14.64;55.16;99640.44;5006655;27;98226;-67
2023/10/30 07:45:58;;;;;;;;;;;;;;;14.72;55.32;99647.81;4978658;27;98270;-73
2023/10/30 07:48:28;;;;;;;;;;;;;;;14.77;55.27;99636.81;4992118;27;98926;-66
2023/10/30 07:50:55;;;;;;;;;;;;;;;14.81;54.80;99636.97;4977109;27;98973;-66
2023/10/30 07:53:21;;;;;;;;;;;;;;;14.91;54.89;99639.41;4958680;27;98863;-66
2023/10/30 07:55:47;;;;;;;;;;;;;;;15.01;55.12;99649.16;4999530;27;98359;-72
2023/10/30 07:58:14;;;;;;;;;;;;;;;15.04;55.23;99657.47;4996249;27;98169;-73
2023/10/30 08:00:40;;;;;;;;;;;;;;;15.12;54.98;99664.81;4993655;27;98899;-73
2023/10/30 08:03:06;;;;;;;;;;;;;;;15.26;54.83;99675.56;4977268;27;106207;-66
2023/10/30 08:05:33;;;;;;;;;;;;;;;15.35;54.87;99672.84;4978110;27;98348;-66
2023/10/30 08:07:59;;;;;;;;;;;;;;;15.41;54.96;99674.31;4997149;27;99320;-73
2023/10/30 08:10:26;;;;;;;;;;;;;;;15.44;54.86;99673.63;4974233;27;98224;-73
2023/10/30 08:12:53;;;;;;;;;;;;;;;15.50;54.97;99682.44;4976795;27;98252;-72
2023/10/30 08:15:19;;;;;;;;;;;;;;;15.54;54.95;99695.06;4979835;27;99427;-66
2023/10/30 08:17:45;;;;;;;;;;;;;;;15.57;55.18;99693.63;4959605;27;99184;-72
2023/10/30 08:20:13;;;;;;;;;;;;;;;15.57;54.96;99705.31;4972243;27;98403;-66
2023/10/30 08:22:40;;;;;;;;;;;;;;;15.56;55.01;99709.16;4995595;27;98024;-73
2023/10/30 08:25:07;;;;;;;;;;;;;;;15.57;55.10;99710.72;4981169;27;98176;-72
2023/10/30 08:27:35;;;;;;;;;;;;;;;15.64;54.98;99711.06;4978275;27;99654;-66
2023/10/30 08:30:02;;;;;;;;;;;;;;;15.68;55.06;99717.47;4981433;27;98192;-72
2023/10/30 08:32:28;;;;;;;;;;;;;;;15.75;54.97;99716.19;4981852;27;98906;-72
2023/10/30 08:34:56;;;;;;;;;;;;;;;15.75;55.06;99711.56;4978169;27;100576;-66
2023/10/30 08:37:22;;;;;;;;;;;;;;;15.79;55.18;99719.88;4964312;27;98169;-72
2023/10/30 08:39:48;;;;;;;;;;;;;;;15.82;54.99;99730.09;4998982;27;98028;-66
2023/10/30 08:42:15;;;;;;;;;;;;;;;15.86;55.12;99737.28;4983783;27;98205;-67
2023/10/30 08:44:41;;;;;;;;;;;;;;;15.94;54.90;99739.22;4983401;27;99322;-66
2023/10/30 08:47:08;;;;;;;;;;;;;;;16.00;54.83;99737.13;4988581;27;98741;-66
2023/10/30 08:49:35;;;;;;;;;;;;;;;16.05;54.92;99736.19;4981042;27;97992;-66
2023/10/30 08:52:01;;;;;;;;;;;;;;;16.12;54.89;99734.56;4982287;27;99428;-66
2023/10/30 08:54:27;;;;;;;;;;;;;;;16.20;54.67;99731.03;4984699;27;98422;-66
2023/10/30 08:56:53;;;;;;;;;;;;;;;16.26;54.86;99736.31;4994356;27;99455;-66
2023/10/30 08:59:20;;;;;;;;;;;;;;;16.25;54.90;99734.72;4993627;27;98443;-72
2023/10/30 09:01:46;;;;;;;;;;;;;;;16.43;54.55;99730.84;4996464;27;98433;-73
2023/10/30 09:04:13;;;;;;;;;;;;;;;16.68;54.24;99727.22;5008256;27;98098;-67
2023/10/30 09:06:39;;;;;;;;;;;;;;;16.91;54.07;99721.59;4969809;27;98492;-66
2023/10/30 09:09:06;;;;;;;;;;;;;;;17.06;54.12;99718.31;4993893;27;98123;-66
2023/10/30 09:11:32;;;;;;;;;;;;;;;17.21;53.89;99714.19;4983027;27;98504;-66
2023/10/30 09:14:00;;;;;;;;;;;;;;;17.29;53.92;99712.56;4984009;27;98490;-66
2023/10/30 09:16:26;;;;;;;;;;;;;;;17.36;54.09;99710.09;5000634;27;98413;-73
2023/10/30 09:18:53;;;;;;;;;;;;;;;17.36;54.19;99704.66;5011960;27;99252;-73
2023/10/30 09:21:20;;;;;;;;;;;;;;;17.54;53.83;99697.19;4978915;27;101152;-71
2023/10/30 09:23:46;;;;;;;;;;;;;;;17.79;53.83;99688.00;4998140;27;98172;-66
2023/10/30 09:26:14;;;;;;;;;;;;;;;17.89;53.67;99689.53;4994944;27;99849;-66
2023/10/30 09:28:41;;;;;;;;;;;;;;;17.92;53.73;99694.34;4980938;27;98210;-66
2023/10/30 09:31:07;;;;;;;;;;;;;;;18.32;53.21;99699.22;4992967;27;97979;-66
2023/10/30 09:33:34;;;;;;;;;;;;;;;18.32;53.49;99702.75;4968721;27;98796;-73
2023/10/30 09:36:00;;;;;;;;;;;;;;;18.79;52.94;99690.69;4971653;27;99355;-66
2023/10/30 09:38:27;;;;;;;;;;;;;;;20.61;50.92;99665.84;5014322;27;98004;-66
2023/10/30 09:41:04;;;;;;;;;;;;;;;22.51;49.01;99682.38;4964781;27;98334;-74
2023/10/30 09:43:33;;;;;;;;;;;;;;;23.24;48.95;99674.91;4981152;27;98364;-67
2023/10/30 09:46:00;;;;;;;;;;;;;;;24.09;48.89;99682.69;4998295;27;98427;-73
2023/10/30 09:48:27;;;;;;;;;;;;;;;24.12;49.79;99676.41;4998872;27;98913;-73
2023/10/30 09:50:53;;;;;;;;;;;;;;;24.19;50.51;99684.75;5011805;27;98435;-67
2023/10/30 09:53:19;;;;;;;;;;;;;;;24.68;50.48;99689.19;4997288;27;98370;-67
2023/10/30 09:55:47;;;;;;;;;;;;;;;24.59;50.92;99688.69;4981224;27;99072;-67
2023/10/30 09:58:15;;;;;;;;;;;;;;;24.15;51.87;99694.91;4996815;27;98120;-67
2023/10/30 10:00:46;;;;;;;;;;;;;;;23.74;52.43;99702.31;4980262;27;98274;-73
2023/10/30 10:03:12;;;;;;;;;;;;;;;23.38;52.72;99695.50;4982805;27;99653;-67
2023/10/30 10:05:38;;;;;;;;;;;;;;;22.98;53.05;99694.94;4992956;27;100025;-73
2023/10/30 10:08:05;;;;;;;;;;;;;;;22.62;53.36;99693.56;4977203;27;98486;-67
2023/10/30 10:10:57;;;;;;;;;;;;;;;22.28;53.72;99676.91;4980371;27;99309;-73
2023/10/30 10:13:23;;;;;;;;;;;;;;;21.89;54.03;99681.63;5010615;27;98125;-73
2023/10/30 10:15:50;;;;;;;;;;;;;;;21.62;54.10;99680.69;4996240;27;98695;-73
2023/10/30 10:18:26;;;;;;;;;;;;;;;21.36;54.33;99680.50;4980072;27;98297;-66
2023/10/30 10:21:08;;;;;;;;;;;;;;;21.09;54.49;99688.50;4993034;27;98352;-66
2023/10/30 10:23:34;;;;;;;;;;;;;;;20.96;54.38;99689.75;4999006;27;98662;-73
2023/10/30 10:26:05;;;;;;;;;;;;;;;20.95;54.29;99686.22;4995055;27;98245;-66
2023/10/30 10:28:32;;;;;;;;;;;;;;;20.96;54.13;99682.34;4982751;27;98134;-67
2023/10/30 10:30:58;;;;;;;;;;;;;;;20.86;54.32;99682.06;4962608;27;98289;-74
2023/10/30 10:33:29;;;;;;;;;;;;;;;20.76;54.33;99677.94;4980460;27;100161;-67
2023/10/30 10:35:57;;;;;;;;;;;;;;;20.63;54.42;99677.22;5002042;27;98531;-66
2023/10/30 10:38:24;;;;;;;;;;;;;;;20.45;54.51;99671.28;4995553;27;99041;-72
2023/10/30 10:40:54;;;;;;;;;;;;;;;20.43;54.50;99659.88;4980561;27;121260;-66
2023/10/30 10:43:21;;;;;;;;;;;;;;;20.53;54.35;99655.88;4993311;27;99318;-66
2023/10/30 10:45:49;;;;;;;;;;;;;;;20.59;54.12;99654.44;4995483;27;98452;-73
2023/10/30 10:48:16;;;;;;;;;;;;;;;21.16;53.07;99655.78;4991131;27;100065;-66
2023/10/30 10:50:43;;;;;;;;;;;;;;;22.35;51.73;99646.03;4994135;27;99758;-66
2023/10/30 10:53:11;;;;;;;;;;;;;;;22.71;51.54;99641.13;4978411;27;98356;-73
2023/10/30 10:56:03;;;;;;;;;;;;;;;22.37;52.32;99640.97;4993447;27;98860;-73
2023/10/30 10:58:50;;;;;;;;;;;;;;;22.12;52.85;99645.19;4983284;27;101000;-72
2023/10/30 11:01:19;;;;;;;;;;;;;;;22.05;53.28;99638.44;4962441;27;98180;-72
2023/10/30 11:03:48;;;;;;;;;;;;;;;22.00;53.24;99633.22;4995249;27;97990;-66
2023/10/30 11:06:15;;;;;;;;;;;;;;;21.93;53.48;99624.06;4996404;27;98745;-72
2023/10/30 11:08:55;;;;;;;;;;;;;;;21.83;53.43;99628.22;4975117;27;98894;-66
2023/10/30 11:11:42;;;;;;;;;;;;;;;21.75;53.56;99630.03;4978743;27;98278;-66
2023/10/30 11:14:15;;;;;;;;;;;;;;;21.61;53.66;99620.72;4975240;27;98191;-66
2023/10/30 11:16:53;;;;;;;;;;;;;;;21.53;53.78;99612.34;4991622;27;98083;-73
2023/10/30 11:19:22;;;;;;;;;;;;;;;21.47;53.71;99605.56;4977648;27;117012;-66
2023/10/30 11:21:49;;;;;;;;;;;;;;;21.42;54.00;99603.13;4963600;27;98291;-66
2023/10/30 11:24:36;;;;;;;;;;;;;;;21.38;53.98;99595.97;4966619;27;98226;-72
2023/10/30 11:27:28;;;;;;;;;;;;;;;21.38;53.88;99601.44;4998829;27;98437;-66
2023/10/30 11:29:55;;;;;;;;;;;;;;;21.39;53.63;99597.56;4996004;27;98675;-65
2023/10/30 11:32:22;;;;;;;;;;;;;;;21.43;53.77;99599.22;5000730;27;98224;-66
2023/10/30 11:34:49;;;;;;;;;;;;;;;21.49;53.73;99606.00;4982251;27;98564;-66
2023/10/30 11:37:16;;;;;;;;;;;;;;;21.47;53.82;99596.56;4992599;27;98202;-67
2023/10/30 11:39:43;;;;;;;;;;;;;;;21.41;53.87;99592.50;4964684;27;98975;-73
2023/10/30 11:42:43;;;;;;;;;;;;;;;21.42;53.99;99585.88;5005890;27;98375;-66
2023/10/30 11:45:22;;;;;;;;;;;;;;;21.45;53.71;99585.94;4983744;27;98576;-66
2023/10/30 11:47:58;;;;;;;;;;;;;;;21.44;53.82;99576.13;4993181;27;98461;-66
2023/10/30 11:50:33;;;;;;;;;;;;;;;21.45;54.07;99572.25;4994787;27;98211;-67
2023/10/30 11:53:10;;;;;;;;;;;;;;;21.43;53.76;99569.09;4956866;27;98569;-73
2023/10/30 11:55:37;;;;;;;;;;;;;;;21.41;53.81;99563.16;4980226;27;98313;-72
2023/10/30 11:58:04;;;;;;;;;;;;;;;21.41;53.90;99559.63;4982368;27;98330;-66
2023/10/30 12:00:30;;;;;;;;;;;;;;;21.42;53.68;99556.53;4981707;27;98340;-67
2023/10/30 12:02:56;;;;;;;;;;;;;;;21.40;53.95;99547.09;4997190;27;99477;-73
2023/10/30 12:05:25;;;;;;;;;;;;;;;21.34;54.08;99543.84;4968235;27;98094;-72
2023/10/30 12:07:51;;;;;;;;;;;;;;;21.37;53.88;99537.63;4997552;27;98461;-73
2023/10/30 12:10:18;;;;;;;;;;;;;;;21.40;53.89;99538.84;4978356;27;110175;-72
2023/10/30 12:12:44;;;;;;;;;;;;;;;21.41;53.82;99533.00;4968850;27;98271;-72
2023/10/30 12:15:11;;;;;;;;;;;;;;;21.38;53.94;99533.75;5017462;27;98124;-72
2023/10/30 12:17:38;;;;;;;;;;;;;;;21.32;53.94;99522.28;4980104;27;98229;-66
2023/10/30 12:20:06;;;;;;;;;;;;;;;21.29;53.95;99528.44;5004411;27;98777;-72
2023/10/30 12:22:37;;;;;;;;;;;;;;;21.31;54.10;99523.41;4980643;27;98156;-72
2023/10/30 12:25:05;;;;;;;;;;;;;;;21.29;54.07;99522.16;4979122;27;98308;-73
2023/10/30 12:27:33;;;;;;;;;;;;;;;21.25;54.24;99526.78;4981679;27;98491;-66
2023/10/30 12:30:08;;;;;;;;;;;;;;;21.15;54.34;99519.94;4980962;27;99166;-66
2023/10/30 12:32:34;;;;;;;;;;;;;;;21.06;54.44;99516.63;4966425;27;99513;-73
2023/10/30 12:35:16;;;;;;;;;;;;;;;20.98;54.46;99515.69;4962405;27;98812;-66
2023/10/30 12:37:43;;;;;;;;;;;;;;;20.91;54.64;99523.75;4986949;27;98581;-66
2023/10/30 12:40:12;;;;;;;;;;;;;;;20.86;54.52;99518.56;4980732;27;98444;-73
2023/10/30 12:42:42;;;;;;;;;;;;;;;20.79;54.56;99516.47;4997873;27;99343;-67
2023/10/30 12:45:11;;;;;;;;;;;;;;;20.73;54.58;99523.38;4996815;27;97962;-73
2023/10/30 12:47:40;;;;;;;;;;;;;;;20.63;54.66;99517.66;4997900;27;98805;-73